Time;durP1;ratioP1;P1;durP2;ratioP2;P2;SDS_P1;SDS_P2;PMS_P1;PMS_P2;Temp;Humidity;BMP_temperature;BMP_pressure;BME280_temperature;BME280_humidity;BME280_pressure;Samples;Min_cycle;Max_cycle;Signal;HPM_P1;HPM_P2
2022/01/19 00:01:24;;;;;;;17.42;10.00;;;;;;;-2.22;61.50;94121.50;2074908;69;20148;-69
2022/01/19 00:03:53;;;;;;;19.23;8.45;;;;;;;-2.14;62.20;94103.22;2074853;69;20191;-69
2022/01/19 00:06:19;;;;;;;20.73;9.73;;;;;;;-2.40;62.86;94102.59;2074737;69;20151;-69
2022/01/19 00:08:44;;;;;;;21.17;10.50;;;;;;;-2.52;62.35;94103.75;2075034;69;20230;-68
2022/01/19 00:11:10;;;;;;;22.85;10.55;;;;;;;-2.37;62.36;94090.56;2074907;69;20144;-70
2022/01/19 00:13:36;;;;;;;20.48;9.60;;;;;;;-2.31;62.02;94108.66;2074783;69;20168;-69
2022/01/19 00:16:02;;;;;;;16.92;8.13;;;;;;;-2.29;61.97;94102.66;2074766;69;20156;-70
2022/01/19 00:18:28;;;;;;;19.63;8.68;;;;;;;-2.31;62.99;94097.63;2074779;69;20219;-69
2022/01/19 00:20:55;;;;;;;15.32;7.55;;;;;;;-2.19;62.78;94092.94;2074862;69;20200;-70
2022/01/19 00:23:22;;;;;;;18.02;8.25;;;;;;;-2.23;63.31;94097.16;2074902;69;20594;-69
2022/01/19 00:25:50;;;;;;;14.68;7.70;;;;;;;-2.20;62.67;94107.19;2074792;69;20649;-69
2022/01/19 00:28:17;;;;;;;16.60;8.52;;;;;;;-2.44;62.70;94102.81;2074778;69;20151;-69
2022/01/19 00:30:43;;;;;;;16.77;8.32;;;;;;;-2.36;62.28;94090.06;2071506;69;20144;-70
2022/01/19 00:33:09;;;;;;;16.10;8.15;;;;;;;-2.34;62.38;94087.59;2075069;69;20643;-70
2022/01/19 00:35:35;;;;;;;14.23;7.20;;;;;;;-2.20;61.60;94087.88;2071313;69;20700;-71
2022/01/19 00:38:02;;;;;;;16.05;7.97;;;;;;;-2.10;61.74;94087.19;2074764;69;20152;-70
2022/01/19 00:40:29;;;;;;;12.27;6.53;;;;;;;-1.97;61.44;94080.44;2071464;69;20209;-68
2022/01/19 00:42:56;;;;;;;14.73;6.03;;;;;;;-2.01;62.13;94069.69;2071532;69;20150;-70
2022/01/19 00:45:22;;;;;;;16.60;7.90;;;;;;;-2.51;63.23;94070.19;2074657;69;20838;-70
2022/01/19 00:47:49;;;;;;;15.65;7.75;;;;;;;-2.39;63.30;94071.75;2074883;69;20525;-69
2022/01/19 00:50:19;;;;;;;16.23;8.18;;;;;;;-2.38;62.84;94072.50;2071172;69;20189;-68
2022/01/19 00:52:44;;;;;;;16.08;8.00;;;;;;;-2.45;62.01;94065.44;2074724;69;20136;-69
2022/01/19 00:55:12;;;;;;;16.55;8.40;;;;;;;-2.20;61.87;94058.31;2071325;69;20139;-68
2022/01/19 00:57:38;;;;;;;16.42;7.80;;;;;;;-2.25;61.28;94052.75;2074809;69;20151;-69
2022/01/19 01:00:12;;;;;;;17.30;7.85;;;;;;;-2.46;62.98;94050.16;2071456;69;20254;-70
2022/01/19 01:02:38;;;;;;;12.77;7.00;;;;;;;-2.23;62.34;94039.22;2074835;69;20168;-69
2022/01/19 01:05:04;;;;;;;14.73;6.95;;;;;;;-2.23;61.25;94042.75;2074654;69;20285;-68
2022/01/19 01:07:33;;;;;;;14.20;6.85;;;;;;;-2.11;61.13;94041.53;2074751;69;20154;-69
2022/01/19 01:10:00;;;;;;;15.77;7.00;;;;;;;-2.21;61.03;94034.72;2074760;69;20189;-70
2022/01/19 01:12:43;;;;;;;17.05;7.32;;;;;;;-2.38;62.44;94040.16;2071392;69;20191;-70
2022/01/19 01:20:36;;;;;;;11.75;6.32;;;;;;;-2.18;60.61;94002.63;2071406;69;20598;-70
2022/01/19 01:23:04;;;;;;;13.25;6.63;;;;;;;-2.33;61.41;94000.81;2071492;69;20223;-69
2022/01/19 01:25:30;;;;;;;12.88;7.00;;;;;;;-2.17;61.59;93996.59;2068624;69;20148;-71
2022/01/19 01:27:55;;;;;;;13.52;6.85;;;;;;;-2.19;61.49;93998.38;2071481;69;20526;-71
2022/01/19 01:30:22;;;;;;;15.40;6.57;;;;;;;-2.11;61.33;94013.16;2071427;69;20159;-69
2022/01/19 01:32:48;;;;;;;11.85;6.28;;;;;;;-2.22;61.29;94024.19;2071509;69;20144;-70
2022/01/19 01:35:14;;;;;;;12.98;7.07;;;;;;;-2.51;61.92;94028.06;2071175;69;20144;-69
2022/01/19 01:37:39;;;;;;;14.95;7.07;;;;;;;-2.71;62.22;94035.22;2071447;69;20151;-69
2022/01/19 01:40:09;;;;;;;13.52;7.38;;;;;;;-2.57;61.40;94037.06;2071417;69;20163;-70
2022/01/19 01:42:35;;;;;;;14.73;6.68;;;;;;;-2.41;60.84;94034.88;2071200;69;20348;-69
2022/01/19 01:45:02;;;;;;;14.82;6.63;;;;;;;-2.48;61.35;94035.34;2071641;69;20166;-69
2022/01/19 01:47:30;;;;;;;18.33;7.30;;;;;;;-2.57;62.11;94026.03;2071459;69;20662;-69
2022/01/19 01:55:19;;;;;;;12.55;6.43;;;;;;;-2.43;62.35;94002.28;2071352;69;20156;-69
2022/01/19 01:57:47;;;;;;;15.57;6.70;;;;;;;-2.51;63.07;93989.47;2075134;69;20580;-68
2022/01/19 02:00:17;;;;;;;13.93;6.75;;;;;;;-2.54;62.78;93985.69;2071770;69;20594;-68
2022/01/19 02:02:45;;;;;;;11.57;6.10;;;;;;;-2.57;63.10;93981.13;2075231;69;20166;-71
2022/01/19 02:05:14;;;;;;;11.90;6.72;;;;;;;-2.39;61.97;93972.44;2074990;69;20159;-68
2022/01/19 02:10:43;;;;;;;15.68;6.72;;;;;;;-2.42;62.98;93958.91;2071711;69;20223;-68
2022/01/19 02:23:52;;;;;;;11.90;6.20;;;;;;;-2.29;61.65;93931.63;2071828;69;20243;-69
2022/01/19 02:26:29;;;;;;;14.38;6.75;;;;;;;-2.79;64.20;93934.16;2071832;69;20140;-70
2022/01/19 02:29:24;;;;;;;17.88;8.15;;;;;;;-2.76;63.90;93931.19;2075047;69;20152;-69
2022/01/19 02:42:42;;;;;;;13.65;6.85;;;;;;;-2.58;62.76;93910.69;2074490;69;20143;-68
2022/01/19 02:50:19;;;;;;;10.98;5.70;;;;;;;-2.52;62.16;93896.94;2075128;69;20140;-69
2022/01/19 02:52:45;;;;;;;12.02;5.75;;;;;;;-2.51;62.43;93895.69;2071831;69;20214;-69
2022/01/19 02:55:11;;;;;;;10.20;5.25;;;;;;;-2.52;62.33;93889.44;2071828;69;20179;-70
2022/01/19 02:57:38;;;;;;;9.88;5.13;;;;;;;-2.41;62.55;93889.44;2071834;69;20182;-70
2022/01/19 03:11:02;;;;;;;8.55;3.63;;;;;;;-1.77;60.21;93873.22;2071733;69;20160;-70
2022/01/19 03:13:29;;;;;;;6.75;3.35;;;;;;;-1.77;59.93;93867.69;2071506;69;20517;-69
2022/01/19 03:15:55;;;;;;;5.82;3.33;;;;;;;-1.90;60.52;93870.19;2074826;69;20147;-68
2022/01/19 03:18:20;;;;;;;7.38;3.90;;;;;;;-1.98;60.51;93869.19;2071840;69;20176;-71
2022/01/19 03:20:46;;;;;;;6.20;3.88;;;;;;;-2.14;61.01;93874.22;2071755;69;20151;-70
2022/01/19 03:23:19;;;;;;;7.53;3.97;;;;;;;-2.15;61.45;93869.19;2071843;69;20144;-72
2022/01/19 03:25:46;;;;;;;7.80;4.05;;;;;;;-2.12;61.01;93857.13;2071842;69;20587;-70
2022/01/19 03:28:12;;;;;;;7.35;3.08;;;;;;;-2.15;61.18;93858.91;2071920;69;20685;-70
2022/01/19 03:30:37;;;;;;;7.00;3.35;;;;;;;-1.91;60.75;93857.66;2075148;69;20144;-70
2022/01/19 03:33:03;;;;;;;6.60;3.15;;;;;;;-1.86;60.32;93857.66;2071861;69;20176;-70
2022/01/19 03:35:29;;;;;;;5.25;3.13;;;;;;;-2.01;60.35;93857.16;2071750;69;20196;-70
2022/01/19 03:37:56;;;;;;;5.88;3.17;;;;;;;-1.95;60.39;93860.66;2075209;69;20167;-70
2022/01/19 03:40:22;;;;;;;5.32;3.00;;;;;;;-1.95;60.82;93852.38;2071843;69;20250;-70
2022/01/19 03:42:48;;;;;;;6.03;3.33;;;;;;;-1.89;60.53;93842.09;2071796;69;20509;-73
2022/01/19 03:45:18;;;;;;;5.85;3.10;;;;;;;-1.82;60.34;93840.84;2071812;69;20166;-71
2022/01/19 03:48:07;;;;;;;6.55;3.15;;;;;;;-1.90;60.49;93842.59;2071848;69;20697;-71
2022/01/19 03:50:34;;;;;;;10.88;3.22;;;;;;;-1.98;60.50;93839.59;2071701;69;20613;-73
2022/01/19 03:53:00;;;;;;;6.85;3.65;;;;;;;-2.02;60.49;93833.56;2071830;69;20170;-70
2022/01/19 03:55:26;;;;;;;6.03;3.08;;;;;;;-2.01;60.07;93837.84;2071842;69;20164;-70
2022/01/19 03:57:52;;;;;;;6.85;3.40;;;;;;;-1.93;60.67;93838.81;2071990;69;20644;-71
2022/01/19 04:00:20;;;;;;;8.30;4.13;;;;;;;-2.04;60.64;93836.06;2071816;69;20525;-71
2022/01/19 04:02:47;;;;;;;14.85;6.03;;;;;;;-2.09;60.71;93832.06;2075184;69;20175;-70
2022/01/19 04:05:22;;;;;;;11.48;5.30;;;;;;;-2.00;60.32;93831.06;2071579;69;20229;-70
2022/01/19 04:07:48;;;;;;;13.25;5.55;;;;;;;-1.99;60.27;93824.28;2071807;69;20495;-70
2022/01/19 04:10:16;;;;;;;8.48;4.35;;;;;;;-1.87;59.99;93836.84;2068973;69;20144;-70
2022/01/19 04:15:13;;;;;;;9.18;4.43;;;;;;;-1.95;60.25;93821.28;2071782;69;20143;-70
2022/01/19 04:17:44;;;;;;;10.50;3.90;;;;;;;-1.92;60.04;93815.50;2071761;69;20208;-70
2022/01/19 04:20:11;;;;;;;8.40;4.00;;;;;;;-1.97;59.96;93812.72;2071615;69;20257;-70
2022/01/19 04:22:37;;;;;;;6.00;2.95;;;;;;;-1.95;60.24;93810.25;2069009;69;20224;-70
2022/01/19 04:25:06;;;;;;;6.63;3.33;;;;;;;-1.88;59.49;93818.00;2071781;69;20147;-72
2022/01/19 04:27:32;;;;;;;7.30;3.25;;;;;;;-1.83;59.18;93815.25;2071745;69;20693;-73
2022/01/19 04:30:11;;;;;;;6.50;3.60;;;;;;;-1.92;59.50;93812.75;2075097;69;20151;-71
2022/01/19 04:35:24;;;;;;;7.10;2.92;;;;;;;-1.78;59.20;93815.75;2071652;69;20195;-70
2022/01/19 04:46:23;;;;;;;10.15;4.55;;;;;;;-1.76;58.82;93802.94;2075227;69;20136;-71
2022/01/19 05:07:44;;;;;;;3.88;2.50;;;;;;;-1.50;57.88;93799.13;2071708;69;20575;-68
2022/01/19 05:15:22;;;;;;;4.68;2.35;;;;;;;-1.52;58.41;93798.88;2071716;69;20147;-69
2022/01/19 05:17:48;;;;;;;7.22;2.60;;;;;;;-1.48;58.24;93791.84;2071658;69;20136;-69
2022/01/19 05:20:14;;;;;;;4.90;2.53;;;;;;;-1.62;58.43;93793.63;2074943;69;20588;-70
2022/01/19 05:22:40;;;;;;;9.10;3.10;;;;;;;-1.73;58.36;93787.38;2071710;69;20155;-72
2022/01/19 05:25:14;;;;;;;6.55;3.30;;;;;;;-1.59;58.00;93784.34;2071684;69;20148;-72
2022/01/19 05:27:45;;;;;;;5.53;3.30;;;;;;;-1.77;59.27;93793.16;2071658;69;20144;-72
2022/01/19 05:30:11;;;;;;;5.57;2.55;;;;;;;-1.73;58.90;93790.16;2071626;69;20155;-70
2022/01/19 05:32:37;;;;;;;4.57;2.60;;;;;;;-1.56;58.36;93793.59;2071433;69;20184;-70
2022/01/19 05:35:03;;;;;;;4.35;1.80;;;;;;;-1.61;58.60;93797.88;2071485;69;20140;-70
2022/01/19 05:37:54;;;;;;;3.22;1.60;;;;;;;-1.44;57.90;93797.84;2069533;69;20147;-70
2022/01/19 05:40:36;;;;;;;2.67;1.93;;;;;;;-1.50;58.51;93799.88;2071669;69;20482;-71
2022/01/19 05:43:02;;;;;;;3.67;1.58;;;;;;;-1.42;57.75;93789.06;2071615;69;20605;-70
2022/01/19 05:45:28;;;;;;;5.40;2.90;;;;;;;-1.56;58.04;93794.38;2071595;69;20201;-70
2022/01/19 05:48:01;;;;;;;5.45;2.20;;;;;;;-1.43;57.66;93796.59;2071712;69;20183;-70
2022/01/19 05:50:28;;;;;;;6.50;2.92;;;;;;;-1.58;57.52;93787.84;2071446;69;20147;-70
2022/01/19 05:53:03;;;;;;;4.82;2.40;;;;;;;-1.31;57.12;93780.75;2071602;69;20254;-70
2022/01/19 05:55:29;;;;;;;4.75;2.10;;;;;;;-1.45;57.60;93787.31;2071543;69;20503;-70
2022/01/19 05:57:55;;;;;;;8.02;3.03;;;;;;;-1.63;57.72;93785.84;2071577;69;20136;-70
2022/01/19 06:00:22;;;;;;;3.88;2.20;;;;;;;-1.61;57.69;93786.09;2071586;69;20499;-70
2022/01/19 06:02:49;;;;;;;5.25;2.75;;;;;;;-1.77;58.15;93784.88;2074962;69;20655;-73
2022/01/19 06:05:18;;;;;;;4.93;2.70;;;;;;;-1.65;57.86;93786.38;2071406;69;20187;-70
2022/01/19 06:10:58;;;;;;;4.53;2.22;;;;;;;-1.21;56.95;93776.44;2071535;69;20205;-70
2022/01/19 06:13:25;;;;;;;3.22;2.00;;;;;;;-1.12;56.42;93781.66;2071504;69;20156;-70
2022/01/19 06:15:51;;;;;;;3.78;2.40;;;;;;;-1.27;57.19;93774.97;2071477;69;20175;-70
2022/01/19 06:18:18;;;;;;;3.80;2.15;;;;;;;-1.36;56.98;93771.22;2075020;69;20148;-70
2022/01/19 06:20:44;;;;;;;4.50;2.10;;;;;;;-1.11;56.46;93774.13;2068591;69;20140;-70
2022/01/19 06:23:12;;;;;;;4.53;2.03;;;;;;;-1.09;56.23;93764.06;2071522;69;20232;-71
2022/01/19 06:25:48;;;;;;;6.15;2.92;;;;;;;-1.24;56.58;93771.91;2068972;69;20186;-70
2022/01/19 06:28:13;;;;;;;8.18;3.50;;;;;;;-1.33;56.83;93769.44;2071485;69;20144;-70
2022/01/19 06:30:39;;;;;;;6.57;2.90;;;;;;;-1.24;56.70;93773.91;2074800;69;20147;-71
2022/01/19 06:33:06;;;;;;;4.70;2.47;;;;;;;-1.13;56.72;93760.06;2071494;69;20526;-71
2022/01/19 06:35:32;;;;;;;4.32;1.80;;;;;;;-1.25;56.69;93764.13;2071345;69;20621;-73
2022/01/19 06:38:07;;;;;;;5.07;1.90;;;;;;;-1.12;56.09;93767.84;2071612;69;20576;-75
2022/01/19 06:40:54;;;;;;;5.28;2.60;;;;;;;-1.17;55.95;93763.09;2074938;69;20154;-72
2022/01/19 06:43:19;;;;;;;3.03;1.83;;;;;;;-1.21;55.89;93757.09;2071833;69;20143;-70
2022/01/19 06:45:45;;;;;;;5.70;2.33;;;;;;;-1.07;55.57;93766.31;2071954;69;20541;-72
2022/01/19 06:48:11;;;;;;;6.13;3.00;;;;;;;-1.17;55.71;93768.63;2071948;69;20521;-70
2022/01/19 06:50:36;;;;;;;5.10;2.80;;;;;;;-1.02;55.26;93768.31;2071828;69;20151;-70
2022/01/19 06:53:03;;;;;;;6.80;2.47;;;;;;;-0.86;55.04;93763.97;2075525;69;20151;-71
2022/01/19 06:55:29;;;;;;;5.50;2.47;;;;;;;-0.92;54.91;93763.22;2071888;69;20139;-70
2022/01/19 06:57:56;;;;;;;6.15;2.63;;;;;;;-0.91;55.36;93759.97;2071923;69;20235;-70
2022/01/19 07:00:24;;;;;;;11.57;7.68;;;;;;;-1.25;56.07;93745.53;2075317;69;20621;-70
2022/01/19 07:03:02;;;;;;;8.68;5.07;;;;;;;-1.08;56.18;93751.75;2075545;69;20152;-71
2022/01/19 07:05:36;;;;;;;5.32;2.75;;;;;;;-0.92;55.43;93747.38;2071219;69;20172;-69
2022/01/19 07:08:24;;;;;;;5.38;2.80;;;;;;;-0.85;54.87;93757.16;2071389;69;20152;-72
2022/01/19 07:10:50;;;;;;;8.82;4.38;;;;;;;-0.96;55.75;93749.69;2071347;69;20234;-73
2022/01/19 07:13:17;;;;;;;8.38;4.80;;;;;;;-0.95;55.11;93747.69;2071334;69;20154;-70
2022/01/19 07:15:43;;;;;;;9.32;4.97;;;;;;;-1.13;56.26;93737.97;2071306;69;20152;-70
2022/01/19 07:18:09;;;;;;;6.03;3.80;;;;;;;-0.96;55.99;93740.63;2071372;69;20152;-71
2022/01/19 07:20:35;;;;;;;5.50;1.80;;;;;;;-1.04;56.16;93735.66;2071218;69;20270;-72
2022/01/19 07:23:01;;;;;;;3.13;1.80;;;;;;;-0.86;55.01;93739.84;2071915;69;20144;-71
2022/01/19 07:25:29;;;;;;;5.10;2.10;;;;;;;-0.87;55.33;93740.31;2071341;69;20144;-71
2022/01/19 07:27:56;;;;;;;14.43;7.15;;;;;;;-1.05;55.72;93739.69;2071316;69;20247;-71
2022/01/19 07:30:24;;;;;;;17.27;8.25;;;;;;;-1.14;55.97;93742.75;2071284;69;20144;-71
2022/01/19 07:32:51;;;;;;;14.25;7.22;;;;;;;-1.08;56.07;93743.47;2071316;69;20144;-70
2022/01/19 07:35:17;;;;;;;14.18;6.72;;;;;;;-1.19;56.32;93738.00;2071216;69;20617;-72
2022/01/19 07:37:45;;;;;;;15.77;7.60;;;;;;;-1.20;56.60;93747.53;2071268;69;20614;-71
2022/01/19 07:40:12;;;;;;;13.45;6.20;;;;;;;-1.18;56.76;93739.50;2071331;69;20162;-71
2022/01/19 07:42:38;;;;;;;14.90;6.05;;;;;;;-1.07;56.39;93733.91;2071289;69;20140;-71
2022/01/19 07:45:06;;;;;;;10.63;6.03;;;;;;;-1.08;56.26;93734.41;2071888;69;20502;-69
2022/01/19 07:47:37;;;;;;;20.88;7.20;;;;;;;-1.30;56.96;93726.97;2071877;69;20133;-69
2022/01/19 07:50:10;;;;;;;17.13;7.97;;;;;;;-1.30;57.25;93724.22;2071200;69;20231;-69
2022/01/19 07:53:17;;;;;;;20.65;9.15;;;;;;;-1.22;56.77;93730.72;2064174;69;20548;-70
2022/01/19 07:55:49;;;;;;;18.10;9.38;;;;;;;-1.22;56.79;93727.22;2061112;69;20145;-69
2022/01/19 07:58:26;;;;;;;17.50;8.32;;;;;;;-1.27;57.53;93733.50;2067114;69;20172;-70
2022/01/19 08:01:08;;;;;;;16.27;7.37;;;;;;;-1.14;57.03;93725.41;2071285;69;20152;-69
2022/01/19 08:03:58;;;;;;;17.50;8.20;;;;;;;-1.25;57.50;93730.97;2070728;69;20526;-70
2022/01/19 08:06:26;;;;;;;18.92;8.85;;;;;;;-1.17;57.01;93727.19;2071105;69;20168;-70
2022/01/19 08:08:54;;;;;;;21.02;10.13;;;;;;;-1.22;56.94;93730.72;2071251;69;20590;-71
2022/01/19 08:11:20;;;;;;;20.30;9.50;;;;;;;-1.13;56.76;93729.69;2071787;69;20163;-75
2022/01/19 08:13:50;;;;;;;23.15;10.02;;;;;;;-1.11;56.74;93730.66;2071254;69;20148;-75
2022/01/19 08:16:16;;;;;;;23.63;10.55;;;;;;;-1.08;56.65;93724.13;2071910;69;20184;-72
2022/01/19 08:18:42;;;;;;;22.42;9.57;;;;;;;-1.10;56.91;93718.34;2071800;69;20148;-71
2022/01/19 08:21:08;;;;;;;28.30;9.48;;;;;;;-1.15;56.73;93721.88;2071688;69;20168;-74
2022/01/19 08:23:43;;;;;;;23.20;11.07;;;;;;;-1.25;57.97;93723.44;2071252;69;20507;-71
2022/01/19 08:26:13;;;;;;;24.33;11.50;;;;;;;-1.23;57.43;93723.69;2071250;69;20605;-70
2022/01/19 08:28:39;;;;;;;26.05;11.10;;;;;;;-1.50;57.99;93724.56;2071229;69;20179;-71
2022/01/19 08:31:05;;;;;;;22.40;10.48;;;;;;;-1.32;57.98;93715.69;2071209;69;20136;-72
2022/01/19 08:33:53;;;;;;;28.48;11.00;;;;;;;-1.39;58.27;93714.19;2071789;69;20183;-71
2022/01/19 08:36:27;;;;;;;22.52;11.35;;;;;;;-1.35;58.22;93713.94;2071164;69;20592;-71
2022/01/19 08:39:17;;;;;;;24.58;12.63;;;;;;;-1.27;57.99;93711.41;2071273;69;20247;-73
2022/01/19 08:41:44;;;;;;;22.98;11.75;;;;;;;-1.47;58.82;93710.47;2071210;69;20129;-76
2022/01/19 08:44:10;;;;;;;33.47;15.98;;;;;;;-1.40;58.86;93715.47;2068384;69;20151;-70
2022/01/19 08:46:40;;;;;;;24.77;12.85;;;;;;;-1.06;59.09;93712.53;2071441;69;20614;-69
2022/01/19 08:49:15;;;;;;;23.52;12.23;;;;;;;-0.65;58.65;93717.31;2071438;69;20160;-70
2022/01/19 08:52:16;;;;;;;25.92;12.10;;;;;;;-0.18;59.28;93714.44;2067462;69;20155;-69
2022/01/19 08:54:50;;;;;;;29.92;14.18;;;;;;;0.05;59.46;93706.72;2068718;69;20221;-69
2022/01/19 08:57:17;;;;;;;30.27;12.38;;;;;;;0.40;58.85;93705.81;2071122;69;20176;-69
2022/01/19 08:59:43;;;;;;;29.98;14.60;;;;;;;0.69;57.30;93702.22;2071175;69;20530;-69
2022/01/19 09:02:10;;;;;;;32.25;14.80;;;;;;;0.94;57.38;93693.84;2071697;69;20156;-69
2022/01/19 09:04:35;;;;;;;27.80;14.20;;;;;;;1.16;57.03;93703.88;2071716;69;20156;-70
2022/01/19 09:07:01;;;;;;;26.30;13.57;;;;;;;1.48;56.22;93701.91;2070996;69;20144;-70
2022/01/19 09:09:27;;;;;;;24.77;12.38;;;;;;;1.47;54.85;93705.97;2071656;69;20140;-72
2022/01/19 09:11:53;;;;;;;47.58;18.95;;;;;;;1.65;54.57;93706.44;2071673;69;20166;-70
2022/01/19 09:14:18;;;;;;;26.45;13.93;;;;;;;1.30;55.95;93710.25;2071612;69;20136;-73
2022/01/19 09:16:45;;;;;;;23.05;11.02;;;;;;;1.88;54.89;93702.03;2071651;69;20145;-69
2022/01/19 09:19:12;;;;;;;34.42;15.95;;;;;;;1.93;54.79;93706.00;2071725;69;20206;-69
2022/01/19 09:21:38;;;;;;;20.52;9.20;;;;;;;2.46;55.29;93697.72;2071690;69;20155;-70
2022/01/19 09:24:03;;;;;;;27.85;12.18;;;;;;;2.78;53.66;93697.63;2071694;69;20141;-68
2022/01/19 09:26:32;;;;;;;16.02;7.68;;;;;;;3.01;53.42;93695.88;2071652;69;20159;-68
2022/01/19 09:28:58;;;;;;;18.33;7.88;;;;;;;3.18;52.22;93692.00;2071644;69;20143;-69
2022/01/19 09:31:23;;;;;;;13.35;6.85;;;;;;;3.23;51.55;93685.56;2071583;69;20124;-72
2022/01/19 09:34:04;;;;;;;13.43;6.90;;;;;;;3.68;50.68;93685.28;2071694;69;20167;-69
2022/01/19 09:36:32;;;;;;;18.45;7.40;;;;;;;3.95;50.34;93688.69;2071537;69;20231;-69
2022/01/19 09:38:59;;;;;;;20.85;8.65;;;;;;;3.89;49.27;93678.97;2071584;69;20140;-69
2022/01/19 09:41:24;;;;;;;15.85;6.70;;;;;;;4.05;48.80;93680.59;2071643;69;20260;-69
2022/01/19 09:43:51;;;;;;;17.02;6.63;;;;;;;4.44;48.98;93659.31;2071574;69;20231;-75
2022/01/19 09:46:16;;;;;;;11.05;5.00;;;;;;;4.71;48.72;93674.56;2071083;69;20224;-75
2022/01/19 09:48:42;;;;;;;14.10;5.53;;;;;;;4.85;48.03;93672.38;2071538;69;20533;-72
2022/01/19 09:51:09;;;;;;;9.52;4.72;;;;;;;4.77;46.19;93661.22;2071417;69;20158;-74
2022/01/19 09:53:34;;;;;;;14.18;5.82;;;;;;;5.25;45.76;93658.81;2071584;69;20139;-72
2022/01/19 09:56:01;;;;;;;19.15;7.30;;;;;;;5.31;45.50;93653.81;2071522;69;20549;-74
2022/01/19 09:58:27;;;;;;;20.40;8.23;;;;;;;5.59;45.30;93650.16;2071583;69;20221;-72
2022/01/19 10:00:53;;;;;;;18.58;7.13;;;;;;;5.57;44.17;93644.38;2071201;69;20132;-73
2022/01/19 10:03:30;;;;;;;18.48;8.10;;;;;;;5.63;44.26;93644.19;2071583;69;20143;-72
2022/01/19 10:06:07;;;;;;;20.30;8.70;;;;;;;6.16;43.66;93635.13;2072936;69;20195;-74
2022/01/19 10:08:41;;;;;;;11.93;4.47;;;;;;;5.14;43.66;93628.44;2075025;69;20582;-72
2022/01/19 10:11:27;;;;;;;10.57;5.32;;;;;;;5.96;42.98;93631.22;2074894;69;20131;-71
2022/01/19 10:17:02;;;;;;;14.43;5.95;;;;;;;6.06;41.84;93623.03;2074993;69;20167;-72
2022/01/19 10:19:44;;;;;;;8.68;4.90;;;;;;;5.89;41.16;93612.38;2072046;69;20494;-72
2022/01/19 10:22:14;;;;;;;10.23;4.35;;;;;;;6.46;42.03;93606.41;2075325;69;20227;-70
2022/01/19 10:25:00;;;;;;;7.20;4.30;;;;;;;7.01;38.96;93610.50;2075440;69;20175;-72
2022/01/19 10:27:43;;;;;;;6.05;3.75;;;;;;;7.44;39.22;93597.44;2075437;69;20143;-72
2022/01/19 10:30:08;;;;;;;11.02;4.70;;;;;;;7.42;39.40;93591.63;2075543;69;20637;-72
2022/01/19 10:32:41;;;;;;;10.18;4.78;;;;;;;7.51;38.03;93594.56;2075400;69;20134;-72
2022/01/19 10:35:15;;;;;;;;;;;;;;;8.10;38.78;93582.00;2075471;69;20188;-71
2022/01/19 10:37:41;;;;;;;11.65;5.22;;;;;;;8.61;37.88;93575.75;2075388;69;20051;-72
2022/01/19 10:40:14;;;;;;;14.90;5.38;;;;;;;9.25;37.46;93564.69;2075379;69;20144;-72
2022/01/19 10:42:39;;;;;;;12.80;5.35;;;;;;;9.95;36.72;93561.66;2075525;69;20582;-71
2022/01/19 10:45:08;;;;;;;19.13;6.00;;;;;;;10.84;34.99;93557.09;2075387;69;20139;-72
2022/01/19 10:47:48;;;;;;;12.95;4.38;;;;;;;9.59;33.83;93546.25;2072022;69;20136;-71
2022/01/19 10:50:44;;;;;;;10.95;5.07;;;;;;;10.10;33.41;93545.25;2075285;69;20184;-72
2022/01/19 10:53:10;;;;;;;11.52;4.18;;;;;;;10.49;33.72;93538.97;2071737;69;20200;-72
2022/01/19 10:55:40;;;;;;;9.45;3.78;;;;;;;10.62;32.79;93527.28;2075342;69;20167;-71
2022/01/19 10:58:13;;;;;;;8.68;3.30;;;;;;;9.92;32.76;93518.56;2075537;69;20630;-73
2022/01/19 11:00:40;;;;;;;6.18;3.03;;;;;;;10.25;33.86;93515.41;2075336;69;20586;-72
2022/01/19 11:03:17;;;;;;;12.75;4.47;;;;;;;10.02;32.66;93508.06;2075305;69;20577;-72
2022/01/19 11:05:45;;;;;;;7.00;3.50;;;;;;;11.76;31.86;93495.94;2075024;69;20160;-71
2022/01/19 11:08:12;;;;;;;6.75;3.85;;;;;;;12.05;32.62;93506.38;2075223;69;20614;-72
2022/01/19 11:10:38;;;;;;;5.75;2.58;;;;;;;14.27;29.82;93495.09;2075185;69;20167;-74
2022/01/19 11:13:06;;;;;;;10.73;3.65;;;;;;;14.66;28.48;93498.16;2075398;69;20607;-77
2022/01/19 11:15:32;;;;;;;14.50;4.50;;;;;;;15.43;28.16;93487.59;2075294;69;20128;-75
2022/01/19 11:17:58;;;;;;;9.48;3.50;;;;;;;17.22;25.68;93478.41;2075442;69;20156;-72
2022/01/19 11:20:25;;;;;;;7.55;5.00;;;;;;;19.04;24.01;93485.25;2075215;69;20136;-73
2022/01/19 11:23:21;;;;;;;6.10;3.22;;;;;;;19.80;22.42;93482.59;2075377;69;20155;-73
2022/01/19 11:26:03;;;;;;;7.20;2.67;;;;;;;20.33;22.55;93483.84;2075399;69;20191;-73
2022/01/19 11:28:38;;;;;;;3.85;2.22;;;;;;;21.68;20.81;93469.22;2075262;69;20144;-73
2022/01/19 11:31:11;;;;;;;7.95;2.60;;;;;;;22.53;20.52;93468.91;2075299;69;20151;-73
2022/01/19 11:33:41;;;;;;;;;;;;;;;22.55;20.26;93463.25;2075561;69;20601;-77
2022/01/19 11:36:21;;;;;;;10.23;4.97;;;;;;;21.82;19.72;93447.47;2075146;69;20503;-76
2022/01/19 11:39:03;;;;;;;13.68;5.40;;;;;;;20.96;19.97;93448.94;2075304;69;20163;-75
2022/01/19 11:41:37;;;;;;;10.20;5.05;;;;;;;22.25;19.64;93439.41;2075374;69;20155;-74
2022/01/19 11:44:04;;;;;;;10.75;4.72;;;;;;;21.44;19.71;93438.41;2075315;69;20151;-74
2022/01/19 11:46:32;;;;;;;29.42;12.50;;;;;;;20.05;20.88;93430.69;2075163;69;20518;-74
2022/01/19 11:49:00;;;;;;;14.57;7.82;;;;;;;21.10;19.85;93423.66;2075297;69;20152;-73
2022/01/19 11:51:30;;;;;;;7.03;3.40;;;;;;;21.57;20.19;93425.91;2075049;69;20164;-73
2022/01/19 11:54:00;;;;;;;5.70;3.10;;;;;;;20.70;20.57;93409.44;2075437;69;20132;-73
2022/01/19 11:56:26;;;;;;;4.43;2.00;;;;;;;17.87;21.52;93401.78;2075265;69;20143;-73
2022/01/19 11:59:05;;;;;;;2.40;1.60;;;;;;;16.46;23.09;93394.34;2075157;69;20156;-72
2022/01/19 12:01:31;;;;;;;2.00;1.50;;;;;;;14.64;24.16;93393.16;2075186;69;20151;-72
2022/01/19 12:04:21;;;;;;;9.82;4.75;;;;;;;13.41;26.09;93378.84;2075322;69;20140;-70
2022/01/19 12:06:48;;;;;;;54.33;16.77;;;;;;;12.55;28.40;93372.72;2075593;69;20136;-72
2022/01/19 12:09:15;;;;;;;30.10;8.57;;;;;;;11.30;28.55;93367.31;2075147;69;20167;-73
2022/01/19 12:11:48;;;;;;;49.90;16.58;;;;;;;10.50;30.33;93365.94;2075077;69;20144;-73
2022/01/19 12:17:07;;;;;;;30.50;10.70;;;;;;;9.54;32.59;93347.69;2075035;69;20497;-72
2022/01/19 12:19:41;;;;;;;23.70;8.88;;;;;;;9.87;32.33;93337.50;2075007;69;20156;-72
2022/01/19 12:22:28;;;;;;;31.23;10.55;;;;;;;8.89;33.62;93335.84;2075043;69;20168;-71
2022/01/19 12:24:59;;;;;;;26.33;10.40;;;;;;;8.65;33.64;93323.44;2075226;69;20238;-73
2022/01/19 12:27:26;;;;;;;42.35;13.80;;;;;;;7.89;35.39;93313.97;2075147;69;20502;-73
2022/01/19 12:30:02;;;;;;;35.33;11.45;;;;;;;7.82;34.66;93303.56;2075149;69;20575;-71
2022/01/19 12:32:28;;;;;;;33.63;9.88;;;;;;;7.58;35.52;93293.22;2075157;69;20154;-75
2022/01/19 12:35:07;;;;;;;44.53;10.05;;;;;;;7.06;36.61;93287.59;2074987;69;20140;-75
2022/01/19 12:37:45;;;;;;;44.85;10.40;;;;;;;7.44;37.37;93273.19;2071692;69;20179;-73
2022/01/19 12:40:16;;;;;;;46.78;13.90;;;;;;;6.61;37.91;93269.88;2075061;69;20148;-72
2022/01/19 12:42:48;;;;;;;51.15;16.30;;;;;;;6.80;38.43;93267.28;2075161;69;20139;-74
2022/01/19 12:45:22;;;;;;;67.80;23.75;;;;;;;6.87;37.59;93260.88;2075438;69;20587;-73
2022/01/19 12:47:49;;;;;;;74.38;33.97;;;;;;;6.65;38.38;93258.28;2075141;69;20517;-75
2022/01/19 12:50:18;;;;;;;67.55;32.53;;;;;;;6.35;38.40;93254.41;2074954;69;20206;-73
2022/01/19 12:52:53;;;;;;;66.85;28.75;;;;;;;6.43;38.32;93243.91;2075063;69;20159;-74
2022/01/19 12:55:26;;;;;;;67.38;28.80;;;;;;;6.10;39.55;93243.22;2075209;69;20156;-74
2022/01/19 12:57:54;;;;;;;62.90;28.25;;;;;;;5.96;39.75;93245.53;2071729;69;20471;-73
2022/01/19 13:00:32;;;;;;;88.80;35.47;;;;;;;5.45;41.10;93240.31;2075101;69;20186;-72
2022/01/19 13:02:59;;;;;;;71.95;24.77;;;;;;;5.19;41.57;93228.34;2075192;69;20159;-75
2022/01/19 13:05:29;;;;;;;53.15;19.10;;;;;;;4.90;42.19;93227.09;2074939;69;20152;-74
2022/01/19 13:08:00;;;;;;;68.18;21.40;;;;;;;5.06;42.48;93223.72;2075209;69;20213;-74
2022/01/19 13:10:45;;;;;;;57.75;21.70;;;;;;;5.18;42.13;93217.72;2075070;69;20155;-73
2022/01/19 13:13:13;;;;;;;50.28;20.33;;;;;;;5.31;41.45;93207.09;2075174;69;20210;-72
2022/01/19 13:15:54;;;;;;;50.75;20.80;;;;;;;4.89;41.98;93192.13;2075026;69;20140;-73
2022/01/19 13:18:37;;;;;;;52.38;20.48;;;;;;;4.76;41.45;93199.41;2075257;69;20152;-74
2022/01/19 13:21:05;;;;;;;58.80;21.10;;;;;;;4.88;42.41;93193.44;2075025;69;20205;-72